ADDS TAF Board (Experimental) INFO

IDs: Format: Expanded Condensed

Updated at: 2057 UTC 18 Dec 2014

KPHL - Philadelphia Intl, PA, US

Issued at 1726 UTC 18 Dec 2014
Time2054Z18/21Z18/22Z18/23Z19/00Z19/01Z19/02Z19/03Z19/04Z19/05Z19/06Z19/07Z19/08Z19/09Z
TypeOBSPRVLPRVLPRVLPRVLPRVLPRVLPRVLPRVLPRVLPRVLPRVLPRVLPRVL
VIS10>6>6>6>6>6>6>6>6>6>6>6>6>6
CIG4040404040------------------
CoverBKNOVCOVCOVCOVCSCTSCTSCTSCTSCTSCTSCTSCTSCT
FltCat--VFRVFRVFRVFRVFRVFRVFRVFRVFRVFRVFRVFRVFR
WX----------------------------
WDir310280280280280290290290290290290290290290
WSpd1314141414101010101010101010
WGst2124242424------------------
R08/26
XWnd116666666666666
XGst1710101010------------------
HWnd-7-13-13-13-13-8-8-8-8-8-8-8-8-8
HGst-12-22-22-22-22------------------
R09/27
XWnd116666666666666
XGst1710101010------------------
HWnd-7-13-13-13-13-8-8-8-8-8-8-8-8-8
HGst-12-22-22-22-22------------------
R17/35
XWnd-6-12-12-12-12-8-8-8-8-8-8-8-8-8
XGst-10-21-21-21-21------------------
HWnd-11-7-7-7-7-7-7-7-7-7-7-7-7-7
HGst-18-12-12-12-12------------------
Raw TAF
KPHL 181726Z 1818/1924 28014G24KT P6SM OVC040
  FM190100 29010KT P6SM SCT040
  FM191200 30007KT P6SM SCT050
  FM191400 31010G18KT P6SM SKC


Raw METAR
KPHL 182054Z 31013G21KT 10SM BKN040 BKN250 04/M05 A3004 RMK AO2 SLP170 T00441050 55005
KPHL 181954Z 30014G22KT 10SM FEW038 SCT043 SCT250 04/M05 A3003 RMK AO2 SLP167 T00441050

TAF Board Legend

Hazard VFR MVFR IFR LIFR
Visibility (sm) >5 3≤X≤5 1≤X<3 <1
Ceiling (100 ft) >30 10≤X≤30 5≤X<10 <5
Wind Speed (kt) <10 10≤X<20 20≤X<30 ≥30
Wind Gust (kt) <15 15≤X<25 25≤X<35 ≥35
Weather No Wx Reported VCTS,-TS,-FZRA TS,FZRA +TS,+FZRA


Page loaded:  20:57 UTC  |   12:57 PM Pacific  |   01:57 PM Mountain  |   02:57 PM Central  |   03:57 PM Eastern

 

ADVISORIES

FORECASTS

FORECASTS

OBSERVATIONS

USER TOOLS

ABOUT US